Time;durP1;ratioP1;P1;durP2;ratioP2;P2;SDS_P1;SDS_P2;PMS_P1;PMS_P2;Temp;Humidity;BMP_temperature;BMP_pressure;BME280_temperature;BME280_humidity;BME280_pressure;Samples;Min_cycle;Max_cycle;Signal;HPM_P1;HPM_P2
2023/07/27 15:54:38;;;;;;;;;7.00;4.33;;;;;34.30;29.32;100243.81;146707;570;46022;-69
2023/07/27 15:57:31;;;;;;;;;5.33;5.33;;;;;34.12;29.68;100253.78;146622;571;46017;-69
2023/07/27 16:00:34;;;;;;;;;4.67;3.33;;;;;33.98;30.62;100249.94;146630;582;46010;-69
2023/07/27 16:03:29;;;;;;;;;5.00;4.67;;;;;33.91;30.62;100253.91;146624;692;46016;-69
2023/07/27 16:06:24;;;;;;;;;4.00;3.67;;;;;33.84;30.26;100267.78;146630;570;46010;-69
2023/07/27 16:09:22;;;;;;;;;3.75;3.75;;;;;33.55;30.56;100267.47;146623;586;47012;-70
2023/07/27 16:12:17;;;;;;;;;5.50;4.25;;;;;33.21;31.48;100261.09;146629;576;46021;-70
2023/07/27 16:15:13;;;;;;;;;4.00;3.50;;;;;32.96;31.51;100272.16;146627;637;45913;-69
2023/07/27 16:18:16;;;;;;;;;4.25;3.50;;;;;32.73;31.68;100267.00;146630;644;47010;-70
2023/07/27 16:21:13;;;;;;;;;4.33;4.33;;;;;32.73;31.96;100278.63;146625;586;46016;-70
2023/07/27 16:24:14;;;;;;;;;3.25;2.75;;;;;32.12;31.89;100168.78;146630;593;46010;-70
2023/07/27 16:27:06;;;;;;;;;3.00;3.00;;;;;32.80;31.83;100289.94;146622;678;47031;-70
2023/07/27 16:29:58;;;;;;;;;4.75;4.75;;;;;32.83;31.71;100298.72;146629;662;46010;-70
2023/07/27 16:32:54;;;;;;;;;3.33;3.00;;;;;32.86;31.82;100295.88;146620;565;47012;-69
2023/07/27 16:35:50;;;;;;;;;6.00;4.67;;;;;32.89;32.28;100300.25;146632;624;46010;-70
2023/07/27 16:38:45;;;;;;;;;3.67;3.67;;;;;32.96;32.11;100312.44;146619;563;47914;-70
2023/07/27 16:41:42;;;;;;;;;4.33;4.00;;;;;33.00;32.65;100315.88;146632;603;46011;-69
2023/07/27 16:44:44;;;;;;;;;6.67;6.67;;;;;33.06;32.47;100319.13;146624;567;46012;-70
2023/07/27 16:47:49;;;;;;;;;6.00;4.33;;;;;33.05;32.15;100325.44;146628;639;47020;-70
2023/07/27 16:50:44;;;;;;;;;4.67;3.00;;;;;33.05;32.07;100324.56;146622;592;46016;-70
2023/07/27 16:53:39;;;;;;;;;1.33;1.33;;;;;33.04;32.60;100323.69;146625;606;46020;-70
2023/07/27 16:56:34;;;;;;;;;4.67;3.33;;;;;33.04;32.30;100328.22;146616;603;46016;-71
2023/07/27 16:59:40;;;;;;;;;5.00;4.33;;;;;33.03;32.17;100334.53;146618;596;47020;-71
2023/07/27 17:02:35;;;;;;;;;3.00;3.00;;;;;32.94;32.39;100329.56;146617;568;47012;-70
2023/07/27 17:05:43;;;;;;;;;5.00;3.33;;;;;32.78;31.80;100345.53;146620;634;46021;-71
2023/07/27 17:08:39;;;;;;;;;5.00;4.33;;;;;32.62;32.35;100345.37;146619;586;46016;-71
2023/07/27 17:11:53;;;;;;;;;;;;;;;;;;;;;
2023/07/27 17:14:48;;;;;;;;;6.00;6.00;;;;;32.42;32.25;100349.78;146616;615;46016;-70
2023/07/27 17:17:47;;;;;;;;;5.33;4.67;;;;;32.36;31.75;100352.75;146622;599;46010;-70
2023/07/27 17:20:48;;;;;;;;;4.67;4.67;;;;;32.38;32.15;100364.31;146614;579;47023;-70
2023/07/27 17:23:49;;;;;;;;;4.33;3.67;;;;;32.38;31.52;100376.84;146622;570;46020;-71
2023/07/27 17:26:42;;;;;;;;;4.00;4.00;;;;;32.37;31.40;100375.13;146617;583;46017;-70
2023/07/27 17:29:50;;;;;;;;;5.00;5.00;;;;;32.34;31.75;100375.25;146616;575;46020;-70
2023/07/27 17:32:46;;;;;;;;;5.00;5.00;;;;;32.34;31.26;100388.66;146619;604;46017;-69
2023/07/27 17:35:41;;;;;;;;;6.00;5.00;;;;;32.31;31.29;100384.31;146624;664;46010;-70
2023/07/27 17:38:38;;;;;;;;;2.33;2.33;;;;;32.32;31.82;100390.53;146616;563;47016;-70
2023/07/27 17:41:34;;;;;;;;;4.67;4.67;;;;;32.35;31.64;100390.41;146622;567;46011;-69
2023/07/27 17:44:26;;;;;;;;;5.67;4.67;;;;;32.35;32.00;100399.31;146619;615;46016;-70
2023/07/27 17:47:18;;;;;;;;;6.67;4.00;;;;;32.35;31.74;100401.12;146626;597;46010;-70
2023/07/27 17:50:12;;;;;;;;;5.33;4.00;;;;;32.34;32.31;100408.31;146616;663;46016;-70
2023/07/27 17:53:09;;;;;;;;;3.67;3.67;;;;;32.34;32.24;100408.31;146625;576;45020;-70
2023/07/27 17:56:08;;;;;;;;;5.00;5.00;;;;;32.34;32.85;100410.13;146619;600;46012;-70
2023/07/27 17:59:00;;;;;;;;;4.67;4.33;;;;;32.33;34.14;100416.41;146625;663;46010;-71
2023/07/27 18:02:06;;;;;;;;;3.33;3.33;;;;;31.56;33.99;100293.69;146613;672;48914;-71
2023/07/27 18:05:07;;;;;;;;;6.00;6.00;;;;;32.29;35.52;100428.25;146623;582;46010;-71
2023/07/27 18:08:21;;;;;;;;;5.00;5.00;;;;;31.52;33.37;100313.50;146618;578;46012;-70
2023/07/27 18:11:29;;;;;;;;;9.25;8.75;;;;;32.20;33.67;100427.69;146619;562;47011;-70
2023/07/27 18:14:33;;;;;;;;;7.67;6.00;;;;;32.18;33.76;100434.94;146614;563;46016;-70
2023/07/27 18:17:30;;;;;;;;;4.67;4.67;;;;;32.13;34.32;100438.75;146625;615;46021;-70
2023/07/27 18:20:31;;;;;;;;;4.00;4.00;;;;;32.11;35.73;100444.16;146615;576;46016;-71
2023/07/27 18:23:28;;;;;;;;;5.00;5.00;;;;;32.06;35.51;100450.69;146623;617;46010;-70
2023/07/27 18:26:21;;;;;;;;;4.00;4.00;;;;;31.20;33.05;100337.09;146620;586;47013;-70
2023/07/27 18:29:22;;;;;;;;;10.75;9.00;;;;;31.87;31.33;100466.63;146620;690;46020;-70
2023/07/27 18:32:22;;;;;;;;;3.67;3.67;;;;;31.87;30.61;100466.63;146615;570;46017;-70
2023/07/27 18:35:23;;;;;;;;;5.33;4.00;;;;;31.89;30.87;100475.50;146624;579;46010;-70
2023/07/27 18:38:15;;;;;;;;;5.00;4.67;;;;;31.86;29.64;100484.50;146619;582;46016;-70
2023/07/27 18:41:11;;;;;;;;;4.00;4.00;;;;;31.83;29.72;100489.13;146621;581;46021;-70
2023/07/27 18:44:10;;;;;;;;;5.33;5.33;;;;;31.79;30.08;100490.19;146619;577;46016;-70
2023/07/27 18:47:09;;;;;;;;;4.67;4.67;;;;;31.77;29.32;100492.06;146623;650;46010;-71
2023/07/27 18:50:01;;;;;;;;;3.00;3.00;;;;;31.74;29.45;100493.06;146615;569;47014;-72
2023/07/27 18:53:00;;;;;;;;;4.33;4.33;;;;;31.71;28.76;100495.84;146622;586;46010;-70
2023/07/27 18:56:03;;;;;;;;;5.67;3.67;;;;;31.64;28.35;100492.56;146618;601;46013;-70
2023/07/27 18:59:07;;;;;;;;;4.67;4.67;;;;;31.56;28.17;100496.47;146620;569;46012;-70
2023/07/27 19:02:06;;;;;;;;;5.33;4.00;;;;;31.44;28.22;100504.06;146620;645;46013;-71
2023/07/27 19:05:02;;;;;;;;;6.00;5.00;;;;;31.37;28.66;100501.66;146621;622;47014;-71
2023/07/27 19:07:56;;;;;;;;;3.00;3.00;;;;;31.36;27.97;100506.16;146617;589;46012;-71
2023/07/27 19:11:00;;;;;;;;;3.67;3.67;;;;;31.34;28.18;100509.81;146622;590;47012;-71
2023/07/27 19:13:55;;;;;;;;;6.00;4.67;;;;;31.35;29.12;100512.47;146619;641;47012;-70
2023/07/27 19:16:59;;;;;;;;;6.00;5.00;;;;;31.30;29.63;100512.59;146625;643;46021;-71
2023/07/27 19:19:51;;;;;;;;;6.00;5.00;;;;;30.45;29.67;100397.97;146621;579;46012;-71
2023/07/27 19:22:52;;;;;;;;;5.33;4.00;;;;;31.00;30.70;100521.78;146618;577;47020;-71
2023/07/27 19:25:54;;;;;;;;;3.33;3.33;;;;;30.80;31.15;100526.03;146618;622;47012;-70
2023/07/27 19:28:49;;;;;;;;;4.33;4.33;;;;;30.58;31.92;100519.66;146622;570;46010;-70
2023/07/27 19:31:43;;;;;;;;;4.33;4.33;;;;;30.45;32.05;100529.03;146615;692;46016;-70
2023/07/27 19:34:44;;;;;;;;;5.00;5.00;;;;;30.34;32.61;100522.28;146622;577;47010;-71
2023/07/27 19:37:42;;;;;;;;;5.67;4.67;;;;;30.23;33.28;100523.53;146617;563;46016;-71
2023/07/27 19:40:45;;;;;;;;;4.67;4.67;;;;;30.12;34.58;100529.19;146622;564;46020;-71
2023/07/27 19:43:37;;;;;;;;;6.33;6.33;;;;;30.02;34.89;100531.31;146616;624;46016;-71
2023/07/27 19:46:39;;;;;;;;;5.67;4.00;;;;;29.94;36.21;100533.38;146622;580;46021;-70
2023/07/27 19:49:37;;;;;;;;;6.00;4.33;;;;;29.88;36.67;100546.91;146619;597;47012;-71
2023/07/27 19:52:29;;;;;;;;;4.67;4.67;;;;;29.82;36.29;100537.28;146623;639;46029;-71
2023/07/27 19:55:31;;;;;;;;;4.33;4.33;;;;;29.77;36.77;100541.91;146619;572;46012;-71
2023/07/27 19:58:30;;;;;;;;;7.00;6.67;;;;;29.65;36.77;100536.94;146622;602;47014;-71
2023/07/27 20:01:24;;;;;;;;;6.00;6.00;;;;;29.58;37.30;100546.03;146615;578;47017;-71
2023/07/27 20:04:16;;;;;;;;;6.00;5.00;;;;;29.54;37.39;100549.72;146621;626;47010;-70
2023/07/27 20:07:15;;;;;;;;;6.33;4.67;;;;;29.51;37.41;100549.81;146619;601;46012;-71
2023/07/27 20:10:12;;;;;;;;;7.67;7.00;;;;;29.49;38.08;100557.84;146621;591;47010;-71
2023/07/27 20:13:07;;;;;;;;;6.00;5.67;;;;;29.44;38.18;100558.00;146615;579;47016;-71
2023/07/27 20:16:11;;;;;;;;;6.33;5.33;;;;;29.43;38.16;100556.22;146624;628;46010;-70
2023/07/27 20:19:12;;;;;;;;;6.00;4.67;;;;;29.44;37.59;100558.00;146615;564;48012;-71
2023/07/27 20:22:05;;;;;;;;;6.33;6.00;;;;;29.46;38.35;100568.63;146620;678;47010;-71
2023/07/27 20:25:00;;;;;;;;;0.67;0.67;;;;;29.45;38.11;100567.75;146616;571;46017;-71
2023/07/27 20:27:52;;;;;;;;;4.00;4.00;;;;;29.45;38.50;100569.56;146622;565;46010;-71
2023/07/27 20:30:45;;;;;;;;;5.33;4.67;;;;;29.46;38.23;100573.97;146619;632;46023;-72
2023/07/27 20:33:44;;;;;;;;;6.33;5.00;;;;;29.44;38.52;100568.69;146624;581;46020;-71
2023/07/27 20:36:54;;;;;;;;;5.00;5.00;;;;;28.63;37.94;100444.59;146617;608;46015;-72
2023/07/27 20:39:49;;;;;;;;;5.33;5.00;;;;;29.26;38.91;100569.22;146621;581;46021;-71
2023/07/27 20:42:49;;;;;;;;;5.00;5.00;;;;;29.17;38.90;100574.81;146620;589;46016;-72
2023/07/27 20:46:05;;;;;;;;;4.00;4.00;;;;;29.02;38.91;100568.09;146621;569;46011;-70
2023/07/27 20:49:01;;;;;;;;;4.33;4.33;;;;;28.95;39.54;100574.50;146619;612;46016;-71
2023/07/27 20:52:01;;;;;;;;;6.00;6.00;;;;;28.87;39.12;100571.16;146619;592;47010;-71
2023/07/27 20:55:07;;;;;;;;;5.67;5.00;;;;;28.77;40.39;100579.41;146630;569;46012;-71
2023/07/27 20:58:08;;;;;;;;;6.75;6.00;;;;;28.68;41.02;100592.09;146632;632;46010;-71
2023/07/27 21:01:10;;;;;;;;;3.00;3.00;;;;;28.55;41.31;100589.75;146634;570;46915;-70
2023/07/27 21:04:13;;;;;;;;;4.00;4.00;;;;;28.45;41.89;100593.56;146630;616;45020;-70
2023/07/27 21:07:08;;;;;;;;;10.00;6.00;;;;;28.36;42.04;100590.22;146633;564;46015;-71
2023/07/27 21:10:04;;;;;;;;;6.00;6.00;;;;;28.30;42.38;100601.91;146637;591;46010;-69
2023/07/27 21:13:00;;;;;;;;;5.67;5.00;;;;;28.23;42.50;100594.97;146635;670;45012;-70
2023/07/27 21:16:10;;;;;;;;;5.67;4.67;;;;;28.18;41.33;100602.19;146637;575;45021;-71
2023/07/27 21:19:04;;;;;;;;;4.00;4.00;;;;;28.13;42.46;100610.31;146634;569;45016;-70
2023/07/27 21:22:01;;;;;;;;;5.00;5.00;;;;;28.09;42.73;100608.59;146632;571;46015;-71
2023/07/27 21:25:00;;;;;;;;;5.00;4.00;;;;;28.08;42.42;100612.19;146636;599;45012;-71
2023/07/27 21:27:57;;;;;;;;;5.33;5.33;;;;;28.07;42.02;100619.31;146639;587;45010;-70
2023/07/27 21:31:06;;;;;;;;;6.00;6.00;;;;;28.16;40.16;100620.88;146637;574;45016;-74
2023/07/27 21:34:11;;;;;;;;;10.33;8.33;;;;;28.25;40.77;100628.66;146631;607;45020;-69
2023/07/27 21:37:11;;;;;;;;;6.33;6.00;;;;;28.30;41.47;100633.91;146636;585;45039;-69
2023/07/27 21:40:04;;;;;;;;;5.67;5.33;;;;;27.68;41.68;100540.22;146637;607;47010;-73
2023/07/27 21:43:00;;;;;;;;;5.00;4.00;;;;;28.33;41.51;100649.81;146636;594;45016;-70
2023/07/27 21:45:56;;;;;;;;;8.33;8.33;;;;;28.34;41.34;100648.91;146637;646;46014;-70
2023/07/27 21:48:52;;;;;;;;;6.50;5.75;;;;;28.38;40.89;100649.69;146634;673;45012;-69
2023/07/27 21:51:47;;;;;;;;;5.33;4.67;;;;;28.45;40.33;100660.25;146631;629;47020;-70
2023/07/27 21:54:46;;;;;;;;;8.00;7.00;;;;;28.53;40.36;100657.37;146636;599;45012;-72
2023/07/27 21:57:38;;;;;;;;;5.67;5.67;;;;;28.68;40.17;100653.47;146638;630;45020;-72
2023/07/27 22:00:35;;;;;;;;;5.00;5.00;;;;;28.74;39.81;100667.53;146634;588;45017;-76
2023/07/27 22:03:35;;;;;;;;;4.00;4.00;;;;;28.71;40.21;100666.72;146631;579;46010;-69
2023/07/27 22:06:31;;;;;;;;;7.00;6.00;;;;;28.67;40.36;100667.72;146638;599;45012;-72
2023/07/27 22:09:27;;;;;;;;;6.00;5.00;;;;;28.66;40.46;100671.28;146635;571;45021;-70
2023/07/27 22:12:22;;;;;;;;;6.33;5.00;;;;;28.61;40.90;100673.22;146635;597;45025;-69
2023/07/27 22:15:26;;;;;;;;;3.67;3.67;;;;;28.44;41.00;100678.94;146634;574;47014;-69
2023/07/27 22:18:18;;;;;;;;;3.67;3.00;;;;;27.96;40.26;100604.47;146631;577;47012;-70
2023/07/27 22:21:13;;;;;;;;;6.00;5.67;;;;;28.44;40.60;100684.25;146628;581;48020;-71
2023/07/27 22:24:12;;;;;;;;;5.67;5.67;;;;;28.46;40.69;100677.13;146632;580;45016;-71
2023/07/27 22:27:14;;;;;;;;;5.00;4.33;;;;;28.42;40.44;100683.44;146635;578;45023;-72
2023/07/27 22:30:16;;;;;;;;;4.00;4.00;;;;;28.31;37.84;100679.16;146635;569;45912;-71
2023/07/27 22:33:29;;;;;;;;;5.33;4.00;;;;;28.28;39.51;100683.69;146630;590;46010;-71
2023/07/27 22:36:26;;;;;;;;;5.67;4.67;;;;;28.34;39.35;100686.22;146632;655;45912;-70
2023/07/27 22:39:24;;;;;;;;;5.33;4.67;;;;;28.33;38.23;100682.69;146638;612;45020;-72
2023/07/27 22:42:30;;;;;;;;;5.00;4.33;;;;;28.39;35.49;100692.34;146634;590;45016;-71
2023/07/27 22:45:28;;;;;;;;;5.33;5.00;;;;;28.47;35.55;100698.41;146635;622;46010;-71
2023/07/27 22:48:38;;;;;;;;;5.67;4.00;;;;;28.48;35.15;100696.62;146635;572;46012;-71
2023/07/27 22:51:47;;;;;;;;;5.33;4.00;;;;;28.37;36.75;100695.97;146632;621;46010;-72
2023/07/27 22:54:42;;;;;;;;;5.00;5.00;;;;;28.15;37.53;100704.44;146632;584;45028;-72
2023/07/27 22:57:43;;;;;;;;;6.00;5.00;;;;;27.95;37.51;100704.00;146637;643;45010;-72
2023/07/27 23:00:35;;;;;;;;;4.00;3.33;;;;;27.80;37.84;100708.72;146634;579;45913;-71
2023/07/27 23:03:30;;;;;;;;;7.00;5.33;;;;;27.68;38.74;100710.72;146627;577;46020;-70
2023/07/27 23:06:29;;;;;;;;;5.00;5.00;;;;;27.57;38.79;100717.12;146631;632;46015;-71
2023/07/27 23:09:31;;;;;;;;;3.00;3.00;;;;;27.59;38.83;100717.09;146636;602;45010;-70
2023/07/27 23:12:23;;;;;;;;;4.67;3.33;;;;;27.66;37.86;100725.84;146634;565;47012;-72
2023/07/27 23:15:24;;;;;;;;;6.50;5.50;;;;;27.74;37.83;100719.47;146634;570;46021;-71
2023/07/27 23:18:21;;;;;;;;;3.33;3.33;;;;;27.86;37.50;100727.25;146630;615;46012;-71
2023/07/27 23:21:16;;;;;;;;;6.67;5.33;;;;;27.88;37.30;100724.53;146634;566;47010;-70
2023/07/27 23:24:13;;;;;;;;;6.33;5.00;;;;;27.85;37.47;100729.91;146635;572;45012;-70
2023/07/27 23:27:11;;;;;;;;;4.00;4.00;;;;;27.79;37.52;100725.63;146635;590;45020;-71
2023/07/27 23:30:22;;;;;;;;;5.67;5.67;;;;;27.78;36.56;100712.31;146630;582;47010;-70
2023/07/27 23:33:25;;;;;;;;;4.00;4.00;;;;;27.90;35.47;100730.72;146627;596;46010;-70
2023/07/27 23:36:26;;;;;;;;;4.33;4.33;;;;;27.86;36.06;100729.91;146634;564;47012;-70
2023/07/27 23:39:29;;;;;;;;;5.00;5.00;;;;;27.80;36.73;100726.50;146634;580;46014;-68
2023/07/27 23:42:25;;;;;;;;;5.00;4.00;;;;;27.80;36.87;100721.16;146636;565;45913;-68
2023/07/27 23:45:19;;;;;;;;;5.67;5.67;;;;;27.84;37.39;100725.50;146633;650;46010;-71
2023/07/27 23:48:18;;;;;;;;;4.67;4.00;;;;;27.79;37.59;100725.63;146636;587;45016;-70
2023/07/27 23:51:10;;;;;;;;;5.00;5.00;;;;;27.78;35.98;100726.50;146638;615;45021;-69
2023/07/27 23:54:15;;;;;;;;;5.33;5.00;;;;;27.68;36.74;100729.34;146622;638;46016;-69
2023/07/27 23:57:13;;;;;;;;;6.00;5.67;;;;;27.49;36.39;100724.38;146613;627;46916;-70
